Time;durP1;ratioP1;P1;durP2;ratioP2;P2;SDS_P1;SDS_P2;PMS_P1;PMS_P2;Temp;Humidity;BMP_temperature;BMP_pressure;BME280_temperature;BME280_humidity;BME280_pressure;Samples;Min_cycle;Max_cycle;Signal;HPM_P1;HPM_P2
2022/01/15 00:01:39;;;;;;;16.80;7.13;;;;;;;;;;6251261;22;20525;-90
2022/01/15 00:04:05;;;;;;;13.85;6.90;;;;;;;;;;6251536;22;20015;-91
2022/01/15 00:06:31;;;;;;;8.68;5.50;;;;;;;;;;6251895;22;20349;-89
2022/01/15 00:08:57;;;;;;;15.23;6.43;;;;;;;;;;6252426;22;20042;-89
2022/01/15 00:11:24;;;;;;;9.38;5.88;;;;;;;;;;6251558;22;20015;-89
2022/01/15 00:13:58;;;;;;;8.80;4.72;;;;;;;;;;6276809;22;20020;-89
2022/01/15 00:16:45;;;;;;;9.18;5.57;;;;;;;;;;6276332;22;20047;-88
2022/01/15 00:19:13;;;;;;;9.15;5.20;;;;;;;;;;6276428;22;20020;-89
2022/01/15 00:21:39;;;;;;;15.13;5.88;;;;;;;;;;6277780;22;20015;-89
2022/01/15 00:24:06;;;;;;;11.93;5.60;;;;;;;;;;6276647;22;20031;-89
2022/01/15 00:26:33;;;;;;;8.85;4.97;;;;;;;;;;6251023;22;20051;-88
2022/01/15 00:28:59;;;;;;;6.25;4.18;;;;;;;;;;6275918;22;20016;-89
2022/01/15 00:31:26;;;;;;;6.85;4.53;;;;;;;;;;6251932;22;20020;-89
2022/01/15 00:33:52;;;;;;;5.60;3.58;;;;;;;;;;6251137;22;20023;-89
2022/01/15 00:36:18;;;;;;;6.93;3.95;;;;;;;;;;6250846;22;20101;-89
2022/01/15 00:38:44;;;;;;;16.83;4.60;;;;;;;;;;6250724;22;20023;-89
2022/01/15 00:41:11;;;;;;;11.20;3.53;;;;;;;;;;6251456;22;20020;-89
2022/01/15 00:43:37;;;;;;;5.47;3.15;;;;;;;;;;6250870;22;20023;-89
2022/01/15 00:46:03;;;;;;;5.00;2.95;;;;;;;;;;6250933;22;20098;-89
2022/01/15 00:48:29;;;;;;;4.75;3.22;;;;;;;;;;6250660;22;20084;-89
2022/01/15 00:50:56;;;;;;;5.80;3.30;;;;;;;;;;6250963;22;20016;-90
2022/01/15 00:53:22;;;;;;;28.83;4.85;;;;;;;;;;6251696;22;20047;-92
2022/01/15 00:55:48;;;;;;;30.00;4.82;;;;;;;;;;6251557;22;20019;-92
2022/01/15 00:58:14;;;;;;;4.85;3.15;;;;;;;;;;6251559;22;20444;-92
2022/01/15 01:00:40;;;;;;;6.03;2.75;;;;;;;;;;6251749;22;20044;-91
2022/01/15 01:03:06;;;;;;;6.45;2.72;;;;;;;;;;6251264;22;20481;-92
2022/01/15 01:05:33;;;;;;;4.05;2.63;;;;;;;;;;6253581;22;20016;-92
2022/01/15 01:07:59;;;;;;;12.15;3.67;;;;;;;;;;6255503;22;20361;-92
2022/01/15 01:23:25;;;;;;;6.55;4.00;;;;;;;;;;6280009;22;20209;-91
2022/01/15 01:25:57;;;;;;;15.82;4.10;;;;;;;;;;6254853;22;20016;-91
2022/01/15 01:28:32;;;;;;;13.73;4.30;;;;;;;;;;6280214;22;20073;-92
2022/01/15 01:31:06;;;;;;;14.13;3.88;;;;;;;;;;6280310;22;20056;-92
2022/01/15 01:33:39;;;;;;;32.10;4.88;;;;;;;;;;6255007;22;20015;-91
2022/01/15 01:38:46;;;;;;;9.68;3.58;;;;;;;;;;6279787;22;20289;-89
2022/01/15 01:41:17;;;;;;;5.70;3.88;;;;;;;;;;6279625;22;20019;-90
2022/01/15 01:46:35;;;;;;;7.57;3.50;;;;;;;;;;6280450;22;20019;-90
2022/01/15 01:49:03;;;;;;;7.45;4.05;;;;;;;;;;6255228;22;20019;-89
2022/01/15 01:51:33;;;;;;;8.82;4.18;;;;;;;;;;6280067;22;20055;-89
2022/01/15 01:54:11;;;;;;;7.10;3.92;;;;;;;;;;6254656;22;20023;-90
2022/01/15 01:56:38;;;;;;;7.75;3.50;;;;;;;;;;6254171;22;20016;-89
2022/01/15 01:59:05;;;;;;;5.80;3.50;;;;;;;;;;6253624;22;20016;-89
2022/01/15 02:01:31;;;;;;;5.07;3.00;;;;;;;;;;6280320;22;20016;-89
2022/01/15 02:03:57;;;;;;;5.90;2.88;;;;;;;;;;6253532;22;20020;-89
2022/01/15 02:06:23;;;;;;;5.13;2.88;;;;;;;;;;6253174;22;20011;-89
2022/01/15 02:08:50;;;;;;;5.18;3.30;;;;;;;;;;6254670;22;20115;-89
2022/01/15 02:11:17;;;;;;;5.03;3.28;;;;;;;;;;6254490;22;20016;-89
2022/01/15 02:13:44;;;;;;;6.20;2.83;;;;;;;;;;6280004;22;20046;-89
2022/01/15 02:16:11;;;;;;;5.53;2.33;;;;;;;;;;6278781;22;20023;-89
2022/01/15 02:18:37;;;;;;;4.15;2.85;;;;;;;;;;6278641;22;20016;-89
2022/01/15 02:23:34;;;;;;;10.05;4.57;;;;;;;;;;6278471;22;20030;-89
2022/01/15 02:26:05;;;;;;;8.30;4.18;;;;;;;;;;6252198;22;20019;-90
2022/01/15 02:28:41;;;;;;;8.38;4.53;;;;;;;;;;6253628;22;20016;-91
2022/01/15 02:31:07;;;;;;;4.65;2.90;;;;;;;;;;6277926;22;20065;-91
2022/01/15 02:33:34;;;;;;;10.40;3.92;;;;;;;;;;6252798;22;20453;-91
2022/01/15 02:36:00;;;;;;;8.25;3.47;;;;;;;;;;6252597;22;20080;-91
2022/01/15 02:38:26;;;;;;;6.63;3.15;;;;;;;;;;6278210;22;20380;-91
2022/01/15 02:40:53;;;;;;;4.50;3.30;;;;;;;;;;6278195;22;20016;-91
2022/01/15 02:43:21;;;;;;;3.08;1.95;;;;;;;;;;6252929;22;20050;-90
2022/01/15 02:45:54;;;;;;;4.80;2.55;;;;;;;;;;6279728;22;20018;-89
2022/01/15 02:48:21;;;;;;;2.75;2.15;;;;;;;;;;6278529;22;20022;-91
2022/01/15 02:50:47;;;;;;;3.67;2.40;;;;;;;;;;6252340;22;20034;-91
2022/01/15 02:53:16;;;;;;;2.83;2.10;;;;;;;;;;6277913;22;20012;-88
2022/01/15 02:55:46;;;;;;;4.18;2.22;;;;;;;;;;6251573;22;20069;-89
2022/01/15 02:58:12;;;;;;;4.93;1.77;;;;;;;;;;6278747;22;20066;-88
2022/01/15 03:00:41;;;;;;;4.05;2.20;;;;;;;;;;6277559;22;20012;-92
2022/01/15 03:03:07;;;;;;;1.80;1.60;;;;;;;;;;6252628;22;20019;-94
2022/01/15 03:05:33;;;;;;;1.73;1.48;;;;;;;;;;6252772;22;20023;-94
2022/01/15 03:07:59;;;;;;;4.00;1.95;;;;;;;;;;6252632;22;20095;-93
2022/01/15 03:10:25;;;;;;;3.10;2.05;;;;;;;;;;6252649;22;20016;-93
2022/01/15 03:12:54;;;;;;;2.70;1.77;;;;;;;;;;6278611;22;20062;-93
2022/01/15 03:15:20;;;;;;;2.05;1.65;;;;;;;;;;6253079;22;20047;-93
2022/01/15 03:17:47;;;;;;;2.90;1.55;;;;;;;;;;6253251;22;20022;-94
2022/01/15 03:20:14;;;;;;;3.10;1.95;;;;;;;;;;6253556;22;20476;-93
2022/01/15 03:22:40;;;;;;;4.65;2.00;;;;;;;;;;6278242;22;20067;-94
2022/01/15 03:25:07;;;;;;;2.70;1.83;;;;;;;;;;6278890;22;20086;-93
2022/01/15 03:27:33;;;;;;;3.58;2.15;;;;;;;;;;6251765;22;20023;-93
2022/01/15 03:29:59;;;;;;;3.25;1.73;;;;;;;;;;6251687;22;20095;-93
2022/01/15 03:32:25;;;;;;;3.70;1.85;;;;;;;;;;6252169;22;20016;-93
2022/01/15 03:34:51;;;;;;;5.75;2.20;;;;;;;;;;6252343;22;20065;-94
2022/01/15 03:37:17;;;;;;;3.17;1.60;;;;;;;;;;6278895;22;20016;-94
2022/01/15 03:39:44;;;;;;;2.88;1.40;;;;;;;;;;6253248;22;20022;-93
2022/01/15 03:42:12;;;;;;;1.83;1.63;;;;;;;;;;6277286;22;20019;-94
2022/01/15 03:44:48;;;;;;;1.65;1.50;;;;;;;;;;6277203;22;20015;-92
2022/01/15 03:47:15;;;;;;;5.43;2.00;;;;;;;;;;6277130;22;20027;-92
2022/01/15 03:49:41;;;;;;;2.40;1.70;;;;;;;;;;6251478;22;20016;-92
2022/01/15 03:52:08;;;;;;;2.78;2.10;;;;;;;;;;6251272;22;20098;-93
2022/01/15 03:54:34;;;;;;;5.85;3.13;;;;;;;;;;6251466;22;20465;-93
2022/01/15 03:57:01;;;;;;;3.95;2.30;;;;;;;;;;6251121;22;20019;-93
2022/01/15 03:59:27;;;;;;;7.10;2.90;;;;;;;;;;6276843;22;20065;-93
2022/01/15 04:01:54;;;;;;;3.58;2.20;;;;;;;;;;6252547;22;20019;-92
2022/01/15 04:04:20;;;;;;;4.68;2.83;;;;;;;;;;6276848;22;20445;-92
2022/01/15 04:06:46;;;;;;;4.00;2.80;;;;;;;;;;6277001;22;20020;-92
2022/01/15 04:09:13;;;;;;;5.05;2.97;;;;;;;;;;6251616;22;20399;-92
2022/01/15 04:11:39;;;;;;;3.25;2.20;;;;;;;;;;6251060;22;20012;-91
2022/01/15 04:14:05;;;;;;;5.25;2.63;;;;;;;;;;6250822;22;20468;-92
2022/01/15 04:16:31;;;;;;;5.50;2.72;;;;;;;;;;6251294;22;20016;-93
2022/01/15 04:18:58;;;;;;;4.00;3.00;;;;;;;;;;6251067;22;20020;-92
2022/01/15 04:21:24;;;;;;;4.38;2.90;;;;;;;;;;6251139;22;20012;-94
2022/01/15 04:23:50;;;;;;;3.38;2.50;;;;;;;;;;6251151;22;20023;-93
2022/01/15 04:26:18;;;;;;;5.78;2.97;;;;;;;;;;6250989;22;20040;-91
2022/01/15 04:28:44;;;;;;;4.55;3.15;;;;;;;;;;6276638;22;20015;-92
2022/01/15 04:31:11;;;;;;;4.88;3.03;;;;;;;;;;6250879;22;20449;-92
2022/01/15 04:33:38;;;;;;;4.72;2.70;;;;;;;;;;6250879;22;20015;-93
2022/01/15 04:36:05;;;;;;;4.13;2.40;;;;;;;;;;6252423;22;20026;-93
2022/01/15 04:38:34;;;;;;;6.85;2.90;;;;;;;;;;6251458;22;20050;-92
2022/01/15 04:41:00;;;;;;;5.82;3.08;;;;;;;;;;6251819;22;20016;-92
2022/01/15 04:43:26;;;;;;;5.78;2.50;;;;;;;;;;6250741;22;20016;-92
2022/01/15 04:45:52;;;;;;;3.78;2.38;;;;;;;;;;6276346;22;20012;-91
2022/01/15 04:48:19;;;;;;;4.28;2.72;;;;;;;;;;6252096;22;20020;-93
2022/01/15 04:50:45;;;;;;;5.97;2.95;;;;;;;;;;6251772;22;20012;-92
2022/01/15 04:53:11;;;;;;;4.15;2.47;;;;;;;;;;6251268;22;20051;-93
2022/01/15 04:55:38;;;;;;;4.28;2.45;;;;;;;;;;6250965;22;20022;-93
2022/01/15 04:58:05;;;;;;;5.35;2.60;;;;;;;;;;6251459;22;20019;-93
2022/01/15 05:00:31;;;;;;;3.45;2.47;;;;;;;;;;6251457;22;20345;-93
2022/01/15 05:02:57;;;;;;;4.35;2.33;;;;;;;;;;6251353;22;20158;-94
2022/01/15 05:05:24;;;;;;;4.63;2.42;;;;;;;;;;6251574;22;20067;-94
2022/01/15 05:07:54;;;;;;;4.22;2.47;;;;;;;;;;6251705;22;20345;-92
2022/01/15 05:10:23;;;;;;;3.65;2.28;;;;;;;;;;6276744;22;20033;-92
2022/01/15 05:12:49;;;;;;;5.18;2.33;;;;;;;;;;6251480;22;20453;-93
2022/01/15 05:15:17;;;;;;;4.75;2.55;;;;;;;;;;6251281;22;20027;-93
2022/01/15 05:17:43;;;;;;;7.60;3.60;;;;;;;;;;6250912;22;20023;-93
2022/01/15 05:20:10;;;;;;;3.08;2.00;;;;;;;;;;6251114;22;20461;-93
2022/01/15 05:22:36;;;;;;;6.60;2.95;;;;;;;;;;6276704;22;20015;-92
2022/01/15 05:25:03;;;;;;;3.78;2.58;;;;;;;;;;6277081;22;20069;-93
2022/01/15 05:27:29;;;;;;;8.98;2.65;;;;;;;;;;6251404;22;20016;-94
2022/01/15 05:29:55;;;;;;;4.43;2.20;;;;;;;;;;6250767;22;20015;-90
2022/01/15 05:32:23;;;;;;;7.22;2.80;;;;;;;;;;6250653;22;20457;-91
2022/01/15 05:34:50;;;;;;;3.92;2.53;;;;;;;;;;6276330;22;20457;-90
2022/01/15 05:37:16;;;;;;;4.15;2.38;;;;;;;;;;6250444;22;20465;-90
2022/01/15 05:39:42;;;;;;;4.13;2.65;;;;;;;;;;6276506;22;20042;-90
2022/01/15 05:42:08;;;;;;;4.18;2.45;;;;;;;;;;6276707;22;20055;-91
2022/01/15 05:44:35;;;;;;;4.20;2.75;;;;;;;;;;6250715;22;20012;-90
2022/01/15 05:47:01;;;;;;;5.28;2.75;;;;;;;;;;6276408;22;20012;-90
2022/01/15 05:49:29;;;;;;;6.22;2.17;;;;;;;;;;6252303;22;20016;-91
2022/01/15 05:51:55;;;;;;;3.85;2.30;;;;;;;;;;6277288;22;20523;-90
2022/01/15 05:54:21;;;;;;;2.40;2.10;;;;;;;;;;6254107;22;20015;-90
2022/01/15 05:56:47;;;;;;;3.80;2.20;;;;;;;;;;6273240;22;20024;-90
2022/01/15 05:59:13;;;;;;;3.75;1.85;;;;;;;;;;6252785;22;20353;-90
2022/01/15 06:01:39;;;;;;;3.58;2.20;;;;;;;;;;6254631;22;20022;-90
2022/01/15 06:04:06;;;;;;;3.10;2.40;;;;;;;;;;6254145;22;20102;-91
2022/01/15 06:06:32;;;;;;;3.55;2.15;;;;;;;;;;6278470;22;20399;-90
2022/01/15 06:08:58;;;;;;;4.75;2.72;;;;;;;;;;6253628;22;20015;-90
2022/01/15 06:11:24;;;;;;;6.70;2.63;;;;;;;;;;6252895;22;20061;-90
2022/01/15 06:13:51;;;;;;;4.07;2.25;;;;;;;;;;6253207;22;20016;-90
2022/01/15 06:16:17;;;;;;;4.55;2.72;;;;;;;;;;6251759;22;20016;-90
2022/01/15 06:18:43;;;;;;;3.65;2.63;;;;;;;;;;6252062;22;20534;-90
2022/01/15 06:21:09;;;;;;;4.72;2.35;;;;;;;;;;6278185;22;20069;-90
2022/01/15 06:23:35;;;;;;;4.13;2.28;;;;;;;;;;6252325;22;20028;-90
2022/01/15 06:26:01;;;;;;;3.80;2.63;;;;;;;;;;6252376;22;20016;-90
2022/01/15 06:28:27;;;;;;;4.38;2.03;;;;;;;;;;6278511;22;20019;-91
2022/01/15 06:30:53;;;;;;;3.58;2.33;;;;;;;;;;6252714;22;20012;-91
2022/01/15 06:33:20;;;;;;;3.08;2.20;;;;;;;;;;6252677;22;20051;-91
2022/01/15 06:35:46;;;;;;;4.82;2.15;;;;;;;;;;6253677;22;20019;-91
2022/01/15 06:38:12;;;;;;;4.55;2.42;;;;;;;;;;6252696;22;20054;-92
2022/01/15 06:40:38;;;;;;;3.75;2.40;;;;;;;;;;6252782;22;20467;-92
2022/01/15 06:43:06;;;;;;;2.92;2.22;;;;;;;;;;6253834;22;20073;-92
2022/01/15 06:45:32;;;;;;;4.65;2.40;;;;;;;;;;6253024;22;20503;-92
2022/01/15 06:47:58;;;;;;;4.47;2.85;;;;;;;;;;6253630;22;20097;-92
2022/01/15 06:50:25;;;;;;;3.40;2.65;;;;;;;;;;6252098;22;20049;-91
2022/01/15 06:52:51;;;;;;;4.43;3.53;;;;;;;;;;6251881;22;20353;-91
2022/01/15 06:55:18;;;;;;;3.33;2.40;;;;;;;;;;6277324;22;20012;-91
2022/01/15 06:57:44;;;;;;;3.67;2.70;;;;;;;;;;6277851;22;20015;-91
2022/01/15 07:00:11;;;;;;;5.97;3.10;;;;;;;;;;6278336;22;20039;-92
2022/01/15 07:02:37;;;;;;;5.97;3.05;;;;;;;;;;6277207;22;20027;-91
2022/01/15 07:05:04;;;;;;;4.30;2.85;;;;;;;;;;6252232;22;20011;-91
2022/01/15 07:07:30;;;;;;;3.60;2.55;;;;;;;;;;6252163;22;20020;-92
2022/01/15 07:09:56;;;;;;;3.70;2.80;;;;;;;;;;6252334;22;20016;-91
2022/01/15 07:12:22;;;;;;;4.47;3.78;;;;;;;;;;6252233;22;20016;-92
2022/01/15 07:14:48;;;;;;;4.03;3.50;;;;;;;;;;6251729;22;20510;-92
2022/01/15 07:17:14;;;;;;;4.32;3.47;;;;;;;;;;6253013;22;20030;-92
2022/01/15 07:19:40;;;;;;;6.75;3.92;;;;;;;;;;6278569;22;20020;-92
2022/01/15 07:22:08;;;;;;;6.72;4.57;;;;;;;;;;6251455;22;20028;-90
2022/01/15 07:24:34;;;;;;;5.38;3.85;;;;;;;;;;6250867;22;20090;-90
2022/01/15 07:27:00;;;;;;;6.65;4.15;;;;;;;;;;6277207;22;20016;-90
2022/01/15 07:29:30;;;;;;;4.25;3.55;;;;;;;;;;6277641;22;20085;-92
2022/01/15 07:31:57;;;;;;;4.20;3.00;;;;;;;;;;6253235;22;20044;-93
2022/01/15 07:34:23;;;;;;;4.30;2.60;;;;;;;;;;6252186;22;20349;-93
2022/01/15 07:36:54;;;;;;;6.38;3.10;;;;;;;;;;6252220;22;20082;-93
2022/01/15 07:39:20;;;;;;;5.50;3.05;;;;;;;;;;6253147;22;20388;-93
2022/01/15 07:41:48;;;;;;;4.20;2.70;;;;;;;;;;6252071;22;20016;-93
2022/01/15 07:44:14;;;;;;;5.78;3.05;;;;;;;;;;6252424;22;20349;-93
2022/01/15 07:46:40;;;;;;;5.20;2.63;;;;;;;;;;6251970;22;20015;-93
2022/01/15 07:49:06;;;;;;;2.90;2.15;;;;;;;;;;6253455;22;20027;-93
2022/01/15 07:51:32;;;;;;;4.35;2.50;;;;;;;;;;6251081;22;20020;-90
2022/01/15 07:53:58;;;;;;;4.10;2.97;;;;;;;;;;6250659;22;20018;-90
2022/01/15 07:56:24;;;;;;;4.22;2.55;;;;;;;;;;6251324;22;20016;-90
2022/01/15 07:58:50;;;;;;;2.97;2.05;;;;;;;;;;6251347;22;20027;-90
2022/01/15 08:01:17;;;;;;;3.65;2.40;;;;;;;;;;6276567;22;20022;-90
2022/01/15 08:03:44;;;;;;;5.22;2.38;;;;;;;;;;6251434;22;20089;-90
2022/01/15 08:06:10;;;;;;;3.28;2.33;;;;;;;;;;6251109;22;20342;-90
2022/01/15 08:08:36;;;;;;;4.43;2.60;;;;;;;;;;6251580;22;20016;-90
2022/01/15 08:11:03;;;;;;;3.05;2.38;;;;;;;;;;6251774;22;20016;-90
2022/01/15 08:13:35;;;;;;;5.93;2.50;;;;;;;;;;6252035;22;20015;-90
2022/01/15 08:16:10;;;;;;;3.95;2.97;;;;;;;;;;6257432;22;20019;-91
2022/01/15 08:18:37;;;;;;;4.47;3.20;;;;;;;;;;6281815;22;20019;-91
2022/01/15 08:21:07;;;;;;;4.85;2.50;;;;;;;;;;6256935;22;20086;-92
2022/01/15 08:23:35;;;;;;;4.40;2.90;;;;;;;;;;6256470;22;20016;-91
2022/01/15 08:26:07;;;;;;;3.72;3.20;;;;;;;;;;6257118;22;20472;-93
2022/01/15 08:28:45;;;;;;;6.53;3.72;;;;;;;;;;6256665;22;20018;-91
2022/01/15 08:31:12;;;;;;;5.60;3.55;;;;;;;;;;6256230;22;20039;-92
2022/01/15 08:33:44;;;;;;;9.00;3.38;;;;;;;;;;6255034;22;20407;-90
2022/01/15 08:36:20;;;;;;;6.65;3.70;;;;;;;;;;6226811;23;20028;-91
2022/01/15 08:38:52;;;;;;;4.45;3.33;;;;;;;;;;6227423;23;20437;-92
2022/01/15 08:41:18;;;;;;;6.85;3.95;;;;;;;;;;6249767;23;20016;-93
2022/01/15 08:43:45;;;;;;;8.30;4.20;;;;;;;;;;6225291;23;20020;-92
2022/01/15 08:46:11;;;;;;;10.68;4.60;;;;;;;;;;6247195;23;20023;-92
2022/01/15 08:48:39;;;;;;;9.75;5.10;;;;;;;;;;6224667;23;20024;-92
2022/01/15 08:51:05;;;;;;;8.60;4.45;;;;;;;;;;6225033;23;20016;-91
2022/01/15 08:53:34;;;;;;;9.95;4.57;;;;;;;;;;6226604;23;20023;-93
2022/01/15 08:56:08;;;;;;;19.35;6.65;;;;;;;;;;6227932;23;20020;-93
2022/01/15 08:58:39;;;;;;;7.68;4.60;;;;;;;;;;6226897;23;20022;-92
2022/01/15 09:01:13;;;;;;;11.15;6.10;;;;;;;;;;6226014;23;20027;-91
2022/01/15 09:04:08;;;;;;;11.93;4.78;;;;;;;;;;6226317;23;20020;-92
2022/01/15 09:06:46;;;;;;;8.05;4.82;;;;;;;;;;6225961;23;20016;-92
2022/01/15 09:09:24;;;;;;;11.98;5.20;;;;;;;;;;6251038;23;20016;-92
2022/01/15 09:12:03;;;;;;;10.20;5.60;;;;;;;;;;6224231;23;20020;-93
2022/01/15 09:14:45;;;;;;;10.60;5.50;;;;;;;;;;6248107;23;20048;-92
2022/01/15 09:20:14;;;;;;;;;;;;;;;;;;;;;
2022/01/15 09:22:49;;;;;;;7.07;4.65;;;;;;;;;;6217716;23;20366;-92
2022/01/15 09:25:18;;;;;;;12.88;4.32;;;;;;;;;;6193306;23;20044;-91
2022/01/15 09:30:28;;;;;;;7.15;3.92;;;;;;;;;;6213719;23;20102;-90
2022/01/15 09:32:55;;;;;;;10.25;5.90;;;;;;;;;;6190648;23;20012;-92
2022/01/15 09:35:27;;;;;;;9.13;5.20;;;;;;;;;;6188826;23;20012;-89
2022/01/15 09:37:53;;;;;;;9.48;5.00;;;;;;;;;;6190784;23;20025;-89
2022/01/15 09:40:20;;;;;;;7.97;4.72;;;;;;;;;;6190412;23;20058;-89
2022/01/15 09:42:47;;;;;;;7.50;4.45;;;;;;;;;;6190772;23;20063;-89
2022/01/15 09:45:14;;;;;;;8.73;3.67;;;;;;;;;;6189288;23;20016;-89
2022/01/15 09:47:41;;;;;;;8.18;3.90;;;;;;;;;;6190916;23;20028;-89
2022/01/15 09:50:15;;;;;;;9.60;4.78;;;;;;;;;;6192033;23;20358;-89
2022/01/15 09:52:41;;;;;;;7.20;4.35;;;;;;;;;;6214897;23;20357;-89
2022/01/15 09:55:09;;;;;;;7.47;4.25;;;;;;;;;;6188872;23;20111;-89
2022/01/15 09:57:35;;;;;;;8.23;4.97;;;;;;;;;;6186873;23;20021;-89
2022/01/15 10:00:03;;;;;;;7.93;4.38;;;;;;;;;;6191087;23;20017;-89
2022/01/15 10:02:29;;;;;;;8.63;4.80;;;;;;;;;;6189453;23;20024;-89
2022/01/15 10:04:55;;;;;;;9.32;4.93;;;;;;;;;;6191230;23;20024;-90
2022/01/15 10:07:25;;;;;;;9.35;5.22;;;;;;;;;;6191981;23;20016;-89
2022/01/15 10:09:51;;;;;;;9.05;5.90;;;;;;;;;;6191117;23;20087;-89
2022/01/15 10:12:24;;;;;;;10.82;6.35;;;;;;;;;;6194293;23;20502;-89
2022/01/15 10:14:50;;;;;;;12.75;6.57;;;;;;;;;;6193417;23;20048;-89
2022/01/15 10:17:35;;;;;;;9.60;5.57;;;;;;;;;;6191922;23;20446;-89
2022/01/15 10:20:13;;;;;;;14.20;7.50;;;;;;;;;;6217346;23;20066;-91
2022/01/15 10:22:40;;;;;;;11.05;7.15;;;;;;;;;;6191738;23;20020;-89
2022/01/15 10:25:07;;;;;;;12.82;6.53;;;;;;;;;;6192041;23;20094;-89
2022/01/15 10:27:38;;;;;;;16.85;8.30;;;;;;;;;;6192198;23;20397;-89
2022/01/15 10:30:24;;;;;;;15.02;6.88;;;;;;;;;;6217092;23;20016;-89
2022/01/15 10:33:01;;;;;;;13.98;6.70;;;;;;;;;;6191723;23;20012;-89
2022/01/15 10:35:33;;;;;;;13.38;7.13;;;;;;;;;;6191507;23;20017;-89
2022/01/15 10:38:04;;;;;;;11.48;6.28;;;;;;;;;;6191193;23;20059;-89
2022/01/15 10:40:42;;;;;;;10.85;6.07;;;;;;;;;;6192024;23;20024;-89
2022/01/15 10:43:09;;;;;;;10.18;6.07;;;;;;;;;;6217889;23;20040;-89
2022/01/15 10:45:46;;;;;;;11.68;6.20;;;;;;;;;;6216954;23;20016;-89
2022/01/15 10:48:20;;;;;;;13.50;6.25;;;;;;;;;;6191517;23;20350;-89
2022/01/15 10:50:54;;;;;;;10.90;5.82;;;;;;;;;;6191517;23;20350;-89
2022/01/15 10:53:20;;;;;;;11.70;6.07;;;;;;;;;;6191158;23;20017;-89
2022/01/15 10:55:52;;;;;;;10.43;5.80;;;;;;;;;;6190898;23;20012;-90
2022/01/15 10:58:18;;;;;;;15.95;7.72;;;;;;;;;;6190711;23;20017;-90
2022/01/15 11:00:46;;;;;;;11.13;6.82;;;;;;;;;;6191081;23;20065;-90
2022/01/15 11:03:17;;;;;;;12.63;6.53;;;;;;;;;;6190574;23;20025;-90
2022/01/15 11:05:45;;;;;;;11.93;6.78;;;;;;;;;;6190692;23;20020;-91
2022/01/15 11:08:16;;;;;;;12.60;6.40;;;;;;;;;;6190377;23;20020;-90
2022/01/15 11:10:47;;;;;;;12.65;7.60;;;;;;;;;;6190426;23;20024;-91
2022/01/15 11:13:15;;;;;;;9.60;5.95;;;;;;;;;;6190668;23;20349;-91
2022/01/15 11:15:42;;;;;;;10.50;6.30;;;;;;;;;;6190861;23;20017;-91
2022/01/15 11:18:10;;;;;;;12.93;6.88;;;;;;;;;;6191115;23;20013;-90
2022/01/15 11:20:38;;;;;;;12.57;6.45;;;;;;;;;;6191380;23;20012;-90
2022/01/15 11:23:04;;;;;;;12.07;6.93;;;;;;;;;;6189534;23;20039;-90
2022/01/15 11:25:30;;;;;;;12.18;6.93;;;;;;;;;;6190260;23;20122;-90
2022/01/15 11:27:57;;;;;;;9.60;5.63;;;;;;;;;;6191065;23;20020;-90
2022/01/15 11:30:24;;;;;;;11.43;6.18;;;;;;;;;;6189905;23;20015;-90
2022/01/15 11:32:50;;;;;;;14.45;6.53;;;;;;;;;;6189959;23;20079;-90
2022/01/15 11:35:16;;;;;;;10.77;6.82;;;;;;;;;;6190676;23;20023;-90
2022/01/15 11:37:49;;;;;;;13.35;7.22;;;;;;;;;;6191208;23;20489;-91
2022/01/15 11:40:27;;;;;;;11.25;7.82;;;;;;;;;;6191142;23;20419;-91
2022/01/15 11:42:53;;;;;;;19.90;8.98;;;;;;;;;;6217135;23;20039;-91
2022/01/15 11:45:35;;;;;;;15.32;7.82;;;;;;;;;;6216962;23;20029;-91
2022/01/15 11:48:21;;;;;;;16.48;8.10;;;;;;;;;;6191378;23;20020;-91
2022/01/15 11:51:07;;;;;;;15.52;8.05;;;;;;;;;;6191589;23;20024;-90
2022/01/15 11:53:49;;;;;;;12.25;7.55;;;;;;;;;;6192649;23;20052;-91
2022/01/15 11:56:16;;;;;;;18.92;9.07;;;;;;;;;;6192494;23;20099;-91
2022/01/15 11:58:42;;;;;;;12.75;8.48;;;;;;;;;;6192168;23;20020;-91
2022/01/15 12:01:28;;;;;;;16.30;8.88;;;;;;;;;;6192225;23;20017;-91
2022/01/15 12:04:14;;;;;;;18.00;9.35;;;;;;;;;;6217138;23;20017;-91
2022/01/15 12:07:18;;;;;;;17.10;9.27;;;5.60;99.90;;;;;;6192101;23;20017;-91
2022/01/15 12:09:44;;;;;;;16.93;9.43;;;;;;;;;;6190936;23;20098;-91
2022/01/15 12:12:20;;;;;;;18.58;8.77;;;;;;;;;;6191077;23;20469;-91
2022/01/15 12:15:06;;;;;;;17.65;9.18;;;;;;;;;;6191321;23;20022;-91
2022/01/15 12:17:36;;;;;;;22.13;10.18;;;;;;;;;;6190513;23;20040;-91
2022/01/15 12:20:05;;;;;;;19.52;10.55;;;;;;;;;;6192478;23;20516;-91
2022/01/15 12:22:34;;;;;;;26.13;11.40;;;;;;;;;;6216557;23;20024;-90
2022/01/15 12:25:01;;;;;;;21.45;9.73;;;;;;;;;;6191589;23;20024;-91
2022/01/15 12:27:28;;;;;;;26.75;12.57;;;;;;;;;;6191654;23;20353;-91
2022/01/15 12:30:02;;;;;;;27.08;11.90;;;;;;;;;;6191389;23;20020;-91
2022/01/15 12:32:29;;;;;;;29.58;11.43;;;;;;;;;;6191436;23;20017;-91
2022/01/15 12:34:56;;;;;;;23.92;11.48;;;;;;;;;;6190233;23;20021;-91
2022/01/15 12:37:23;;;;;;;26.52;13.38;;;;;;;;;;6214625;23;20142;-90
2022/01/15 12:39:49;;;;;;;26.80;13.23;;;;;;;;;;6189557;23;20450;-91
2022/01/15 12:42:17;;;;;;;22.83;11.65;;;;;;;;;;6185547;23;20047;-91
2022/01/15 12:44:43;;;;;;;20.77;11.40;;;;;;;;;;6189407;23;20024;-90
2022/01/15 12:47:09;;;;;;;23.90;10.88;;;;;;;;;;6189392;23;20020;-91
2022/01/15 12:49:40;;;;;;;25.30;11.18;;;;;;;;;;6190252;23;20044;-90
2022/01/15 12:52:17;;;;;;;21.63;11.40;;;;;;;;;;6190003;23;20020;-91
2022/01/15 12:54:46;;;;;;;19.83;10.13;;;;;;;;;;6189703;23;20446;-90
2022/01/15 12:57:12;;;;;;;25.10;11.90;;;;;;;;;;6189954;23;20025;-91
2022/01/15 12:59:39;;;;;;;18.60;9.38;;;;;;;;;;6214466;23;20454;-90
2022/01/15 13:02:05;;;;;;;24.38;10.57;;;;;;;;;;6190104;23;20027;-91
2022/01/15 13:04:32;;;;;;;26.42;10.38;;;;;;;;;;6189146;23;20035;-91
2022/01/15 13:06:59;;;;;;;18.58;9.43;;;;;;;;;;6189815;23;20527;-89
2022/01/15 13:09:38;;;;;;;18.48;9.93;;;;;;;;;;6191249;23;20434;-91
2022/01/15 13:12:06;;;;;;;38.63;10.80;;;;;;;;;;6190455;23;20016;-90
2022/01/15 13:14:39;;;;;;;30.80;11.38;;;;;;;;;;6190691;23;20032;-90
2022/01/15 13:17:05;;;;;;;25.57;10.70;;;;;;;;;;6191408;23;20083;-90
2022/01/15 13:19:41;;;;;;;21.15;10.55;;;;;;;;;;6189788;23;20017;-91
2022/01/15 13:22:07;;;;;;;24.17;12.18;;;;;;;;;;6190043;23;20013;-90
2022/01/15 13:24:33;;;;;;;22.92;12.77;;;;;;;;;;6212303;23;20020;-90
2022/01/15 13:27:00;;;;;;;23.73;11.60;;;;;;;;;;6208513;23;20031;-90
2022/01/15 13:29:36;;;;;;;24.33;12.77;;;;;;;;;;6183544;23;20021;-91
2022/01/15 13:32:09;;;;;;;29.15;13.90;;;;;;;;;;6187053;23;20025;-92
2022/01/15 13:34:36;;;;;;;25.13;12.57;;;;;;;;;;6184056;23;20017;-90
2022/01/15 13:37:22;;;;;;;25.45;12.30;;;;;;;;;;6129385;23;20072;-89
2022/01/15 13:39:51;;;;;;;22.55;11.50;;;;;;;;;;6122665;23;20030;-89
2022/01/15 13:42:23;;;;;;;18.00;11.30;;;;;;;;;;6125596;23;20018;-92
2022/01/15 13:44:49;;;;;;;19.08;10.45;;;;;;;;;;6076922;23;20441;-90
2022/01/15 13:47:18;;;;;;;17.63;10.65;;;;;;;;;;6076672;23;20010;-90
2022/01/15 13:55:30;;;;;;;18.10;11.57;;;;;;;;;;6070547;23;20022;-91
2022/01/15 13:58:09;;;;;;;22.02;12.02;;;;;;;;;;6095555;23;20020;-90
2022/01/15 14:00:35;;;;;;;21.95;12.00;;;;;;;;;;6071012;23;20058;-90
2022/01/15 14:03:08;;;;;;;23.65;12.18;;;;;;;;;;6070863;23;20026;-91
2022/01/15 14:05:35;;;;;;;20.08;10.73;;;;;;;;;;6072375;23;20452;-91
2022/01/15 14:08:10;;;;;;;21.92;11.63;;;;;;;;;;6072156;23;20023;-91
2022/01/15 14:10:41;;;;;;;25.15;13.90;;;;;;;;;;6084020;23;20018;-90
2022/01/15 14:13:08;;;;;;;19.75;12.00;;;;;;;;;;6077234;23;20064;-91
2022/01/15 14:15:35;;;;;;;19.38;12.35;;;;;;;;;;6102252;23;20096;-89
2022/01/15 14:18:11;;;;;;;19.90;11.70;;;;;;;;;;6078640;23;20026;-90
2022/01/15 14:23:30;;;;;;;22.98;12.55;;;;;;;;;;6102256;23;20022;-90
2022/01/15 14:25:57;;;;;;;26.52;12.95;;;;;;;;;;6078403;23;20018;-90
2022/01/15 14:28:23;;;;;;;21.25;11.32;;;;;;;;;;6078537;23;20021;-90
2022/01/15 14:30:52;;;;;;;24.08;12.48;;;;;;;;;;6137389;23;20335;-90
2022/01/15 14:33:18;;;;;;;22.45;12.43;;;;;;;;;;6137429;23;20017;-90
2022/01/15 14:35:45;;;;;;;27.52;14.68;;;;;;;;;;6185450;23;20088;-89
2022/01/15 14:38:12;;;;;;;24.92;13.68;;;;;;;;;;6192358;23;20041;-90
2022/01/15 14:40:38;;;;;;;23.08;12.27;;;;;;;;;;6191940;23;20020;-90
2022/01/15 14:43:04;;;;;;;24.00;13.00;;;;;;;;;;6191613;23;20027;-89
2022/01/15 14:45:30;;;;;;;23.60;12.23;;;;;;;;;;6192530;23;20017;-90
2022/01/15 14:47:57;;;;;;;28.33;12.30;;;;;;;;;;6217675;23;20023;-91
2022/01/15 14:50:23;;;;;;;27.42;13.45;;;;;;;;;;6191664;23;20012;-91
2022/01/15 14:52:49;;;;;;;28.05;13.05;;;;;;;;;;6191460;23;20013;-91
2022/01/15 14:55:16;;;;;;;24.20;12.68;;;;;;;;;;6192783;23;20016;-91
2022/01/15 14:57:42;;;;;;;23.17;12.35;;;;;;;;;;6216956;23;20016;-90
2022/01/15 15:00:10;;;;;;;23.20;12.70;;;;;;;;;;6191559;23;20027;-91
2022/01/15 15:02:40;;;;;;;26.58;12.65;;;;;;;;;;6191519;23;20017;-91
2022/01/15 15:05:06;;;;;;;25.00;11.98;;;;;;;;;;6191863;23;20016;-90
2022/01/15 15:07:35;;;;;;;24.70;11.73;;;;;;;;;;6191554;23;20332;-91
2022/01/15 15:10:04;;;;;;;25.88;13.55;;;;;;;;;;6192264;23;20411;-91
2022/01/15 15:12:37;;;;;;;25.02;12.55;;;;;;;;;;6191696;23;20012;-90
2022/01/15 15:15:05;;;;;;;24.92;13.38;;;;;;;;;;6217979;23;20013;-91
2022/01/15 15:17:31;;;;;;;28.27;14.27;;;;;;;;;;6191420;23;20048;-91
2022/01/15 15:19:57;;;;;;;31.88;15.57;;;;;;;;;;6191227;23;20017;-92